createdAt,value
2022-11-30T00:00:55.951Z,96232.69
2022-11-30T00:03:26.495Z,96237.25
2022-11-30T00:05:54.125Z,96228.25
2022-11-30T00:08:22.664Z,96235.91
2022-11-30T00:10:57.059Z,96234.28
2022-11-30T00:13:29.073Z,96224.31
2022-11-30T00:15:56.535Z,96229.31
2022-11-30T00:21:18.911Z,96222.06
2022-11-30T00:23:45.893Z,96227.56
2022-11-30T00:26:12.867Z,96216.66
2022-11-30T00:28:40.198Z,96209.94
2022-11-30T00:31:09.947Z,96215.91
2022-11-30T00:33:37.553Z,96217.56
2022-11-30T00:36:04.497Z,96215.34
2022-11-30T00:38:35.031Z,96209.84
2022-11-30T00:41:01.883Z,96209.44
2022-11-30T00:43:29.543Z,96214.84
2022-11-30T00:45:56.455Z,96206.72
2022-11-30T00:48:23.898Z,96218.03
2022-11-30T00:50:51.305Z,96218.72
2022-11-30T00:53:21.847Z,96222.16
2022-11-30T00:55:50.730Z,96220.47
2022-11-30T00:58:19.687Z,96218.91
2022-11-30T01:00:46.926Z,96220.97
2022-11-30T01:03:14.353Z,96228.97
2022-11-30T01:05:41.234Z,96228.78
2022-11-30T01:08:08.213Z,96233.13
2022-11-30T01:10:35.845Z,96234.69
2022-11-30T01:13:10.029Z,96231.59
2022-11-30T01:15:37.579Z,96242.59
2022-11-30T01:18:05.285Z,96244.31
2022-11-30T01:23:14.246Z,96237.66
2022-11-30T01:25:41.874Z,96245.16
2022-11-30T01:28:10.321Z,96242.16
2022-11-30T01:30:37.129Z,96233.03
2022-11-30T01:33:04.096Z,96234.94
2022-11-30T01:35:30.778Z,96236.00
2022-11-30T01:37:59.327Z,96238.22
2022-11-30T01:40:26.711Z,96241.56
2022-11-30T01:42:53.805Z,96242.59
2022-11-30T01:45:21.232Z,96245.44
2022-11-30T01:47:49.654Z,96246.41
2022-11-30T01:50:16.502Z,96236.44
2022-11-30T01:52:43.952Z,96232.91
2022-11-30T01:58:02.378Z,96234.91
2022-11-30T02:00:30.136Z,96219.59
2022-11-30T02:02:58.901Z,96230.56
2022-11-30T02:05:28.642Z,96219.53
2022-11-30T02:07:56.194Z,96220.38
2022-11-30T02:10:23.346Z,96226.28
2022-11-30T02:12:50.411Z,96218.56
2022-11-30T02:15:17.486Z,96224.78
2022-11-30T02:17:46.236Z,96226.78
2022-11-30T02:20:13.824Z,96227.56
2022-11-30T02:22:41.512Z,96226.16
2022-11-30T02:25:10.340Z,96228.91
2022-11-30T02:27:39.172Z,96235.88
2022-11-30T02:30:15.267Z,96225.31
2022-11-30T02:32:43.744Z,96226.84
2022-11-30T02:35:13.335Z,96228.38
2022-11-30T02:37:42.444Z,96226.50
2022-11-30T02:40:09.390Z,96217.72
2022-11-30T02:42:37.011Z,96219.44
2022-11-30T02:45:03.861Z,96214.88
2022-11-30T02:47:33.616Z,96218.25
2022-11-30T02:50:00.430Z,96212.00
2022-11-30T02:52:27.453Z,96215.84
2022-11-30T02:54:57.232Z,96226.00
2022-11-30T02:57:32.211Z,96221.16
2022-11-30T03:00:01.093Z,96219.78
2022-11-30T03:02:28.627Z,96221.75
2022-11-30T03:04:56.837Z,96220.63
2022-11-30T03:07:24.385Z,96219.16
2022-11-30T03:09:58.478Z,96220.44
2022-11-30T03:12:25.965Z,96222.09
2022-11-30T03:14:53.625Z,96217.94
2022-11-30T03:17:20.763Z,96220.94
2022-11-30T03:19:48.440Z,96211.19
2022-11-30T03:22:16.035Z,96213.81
2022-11-30T03:24:44.275Z,96215.72
2022-11-30T03:27:15.930Z,96215.72
2022-11-30T03:29:43.426Z,96218.53
2022-11-30T03:32:12.185Z,96217.91
2022-11-30T03:34:43.093Z,96219.53
2022-11-30T03:37:10.346Z,96221.66
2022-11-30T03:39:37.803Z,96238.84
2022-11-30T03:42:07.185Z,96226.94
2022-11-30T03:44:33.736Z,96221.66
2022-11-30T03:47:00.674Z,96214.91
2022-11-30T03:49:28.137Z,96215.72
2022-11-30T03:51:55.732Z,96227.63
2022-11-30T03:54:24.698Z,96217.84
2022-11-30T03:56:51.670Z,96221.56
2022-11-30T03:59:20.825Z,96226.50
2022-11-30T04:01:48.395Z,96217.19
2022-11-30T04:04:15.117Z,96211.75
2022-11-30T04:06:43.528Z,96217.47
2022-11-30T04:09:10.678Z,96211.94
2022-11-30T04:11:44.878Z,96222.00
2022-11-30T04:14:34.188Z,96218.16
2022-11-30T04:17:12.189Z,96225.75
2022-11-30T04:19:39.164Z,96224.53
2022-11-30T04:22:07.436Z,96234.22
2022-11-30T04:24:34.860Z,96225.38
2022-11-30T04:27:02.525Z,96223.59
2022-11-30T04:29:29.432Z,96224.47
2022-11-30T04:31:56.508Z,96234.78
2022-11-30T04:34:23.310Z,96225.44
2022-11-30T04:36:50.765Z,96238.75
2022-11-30T04:39:17.961Z,96229.13
2022-11-30T04:41:45.222Z,96232.88
2022-11-30T04:44:13.770Z,96235.41
2022-11-30T04:49:31.567Z,96230.19
2022-11-30T04:51:59.177Z,96225.63
2022-11-30T04:54:26.861Z,96234.47
2022-11-30T04:56:56.053Z,96227.81
2022-11-30T04:59:24.181Z,96232.84
2022-11-30T05:01:51.861Z,96226.13
2022-11-30T05:04:27.568Z,96232.94
2022-11-30T05:07:04.178Z,96237.44
2022-11-30T05:09:32.610Z,96235.25
2022-11-30T05:11:59.910Z,96239.41
2022-11-30T05:14:26.893Z,96239.75
2022-11-30T05:16:55.903Z,96245.66
2022-11-30T05:19:24.626Z,96232.09
2022-11-30T05:21:55.511Z,96241.88
2022-11-30T05:24:26.975Z,96235.97
2022-11-30T05:26:56.584Z,96238.22
2022-11-30T05:29:27.787Z,96230.22
2022-11-30T05:31:56.476Z,96230.06
2022-11-30T05:34:25.039Z,96232.16
2022-11-30T05:36:57.422Z,96231.03
2022-11-30T05:39:26.254Z,96230.22
2022-11-30T05:41:53.700Z,96225.34
2022-11-30T05:44:23.229Z,96226.13
2022-11-30T05:46:51.672Z,96236.72
2022-11-30T05:49:20.003Z,96228.03
2022-11-30T05:51:49.804Z,96237.47
2022-11-30T05:54:20.222Z,96233.28
2022-11-30T05:56:51.582Z,96235.25
2022-11-30T05:59:26.120Z,96238.53
2022-11-30T06:01:58.068Z,96241.22
2022-11-30T06:04:26.898Z,96229.66
2022-11-30T06:07:02.036Z,96238.25
2022-11-30T06:09:29.752Z,96233.75
2022-11-30T06:12:06.609Z,96231.91
2022-11-30T06:14:40.725Z,96232.34
2022-11-30T06:17:11.214Z,96228.59
2022-11-30T06:19:38.689Z,96227.81
2022-11-30T06:22:11.490Z,96223.75
2022-11-30T06:24:38.577Z,96229.31
2022-11-30T06:27:05.549Z,96236.31
2022-11-30T06:29:38.002Z,96235.25
2022-11-30T06:32:07.645Z,96230.66
2022-11-30T06:34:35.446Z,96235.16
2022-11-30T06:37:04.037Z,96230.47
2022-11-30T06:40:04.187Z,96229.16
2022-11-30T06:42:21.592Z,96227.91
2022-11-30T06:44:49.764Z,96229.00
2022-11-30T06:47:18.867Z,96233.22
2022-11-30T06:49:51.950Z,96240.41
2022-11-30T06:52:18.851Z,96243.41
2022-11-30T06:54:48.353Z,96244.88
2022-11-30T06:57:20.772Z,96240.47
2022-11-30T06:59:58.801Z,96235.13
2022-11-30T07:02:25.917Z,96239.16
2022-11-30T07:04:52.690Z,96236.16
2022-11-30T07:07:21.354Z,96240.50
2022-11-30T07:09:49.098Z,96240.00
2022-11-30T07:12:16.789Z,96234.81
2022-11-30T07:14:45.846Z,96237.78
2022-11-30T07:17:13.730Z,96240.94
2022-11-30T07:19:41.806Z,96233.97
2022-11-30T07:22:12.492Z,96247.72
2022-11-30T07:24:51.943Z,96240.38
2022-11-30T07:27:19.115Z,96240.88
2022-11-30T07:29:46.172Z,96241.91
2022-11-30T07:32:13.259Z,96242.25
2022-11-30T07:34:41.307Z,96245.66
2022-11-30T07:37:08.243Z,96253.19
2022-11-30T07:39:36.159Z,96256.78
2022-11-30T07:42:14.238Z,96244.41
2022-11-30T07:44:41.683Z,96242.38
2022-11-30T07:47:09.326Z,96245.63
2022-11-30T07:49:36.033Z,96250.72
2022-11-30T07:52:04.998Z,96242.84
2022-11-30T07:54:31.775Z,96259.81
2022-11-30T07:56:59.224Z,96250.91
2022-11-30T07:59:27.014Z,96263.28
2022-11-30T08:02:05.345Z,96263.09
2022-11-30T08:04:33.502Z,96258.03
2022-11-30T08:07:04.178Z,96269.59
2022-11-30T08:09:32.902Z,96256.63
2022-11-30T08:12:02.737Z,96259.91
2022-11-30T08:14:29.600Z,96248.38
2022-11-30T08:16:59.897Z,96259.81
2022-11-30T08:19:41.114Z,96255.03
2022-11-30T08:22:18.870Z,96255.94
2022-11-30T08:25:01.539Z,96266.78
2022-11-30T08:27:31.806Z,96253.97
2022-11-30T08:30:03.257Z,96265.19
2022-11-30T08:32:34.115Z,96261.94
2022-11-30T08:35:08.998Z,96268.38
2022-11-30T08:37:36.341Z,96262.13
2022-11-30T08:40:05.117Z,96264.63
2022-11-30T08:45:18.794Z,96274.13
2022-11-30T08:47:56.503Z,96270.84
2022-11-30T08:50:24.207Z,96285.81
2022-11-30T08:52:54.462Z,96270.81
2022-11-30T08:58:09.434Z,96267.47
2022-11-30T09:00:36.774Z,96271.28
2022-11-30T09:03:04.521Z,96268.16
2022-11-30T09:05:35.891Z,96263.28
2022-11-30T09:08:13.540Z,96267.00
2022-11-30T09:10:44.380Z,96265.13
2022-11-30T09:13:14.496Z,96272.91
2022-11-30T09:15:44.787Z,96266.13
2022-11-30T09:18:13.505Z,96268.16
2022-11-30T09:20:47.635Z,96270.44
2022-11-30T09:23:18.159Z,96269.84
2022-11-30T09:25:50.528Z,96282.06
2022-11-30T09:28:21.964Z,96273.03
2022-11-30T09:30:57.038Z,96276.13
2022-11-30T09:33:24.641Z,96282.75
2022-11-30T09:41:21.086Z,96278.81
2022-11-30T09:43:54.075Z,96276.66
2022-11-30T09:46:28.825Z,96277.63
2022-11-30T09:49:03.460Z,96270.69
2022-11-30T09:51:35.839Z,96264.84
2022-11-30T09:54:06.456Z,96272.03
2022-11-30T09:56:48.506Z,96268.09
2022-11-30T09:59:27.174Z,96280.56
2022-11-30T10:02:01.471Z,96273.34
2022-11-30T10:04:30.584Z,96266.28
2022-11-30T10:06:58.754Z,96264.19
2022-11-30T10:09:33.492Z,96258.81
2022-11-30T10:14:59.956Z,96260.38
2022-11-30T10:17:31.395Z,96259.56
2022-11-30T10:20:02.998Z,96252.81
2022-11-30T10:22:41.122Z,96246.53
2022-11-30T10:25:11.927Z,96253.50
2022-11-30T10:27:40.288Z,96246.69
2022-11-30T10:30:08.987Z,96249.16
2022-11-30T10:32:36.789Z,96244.75
2022-11-30T10:35:03.963Z,96241.88
2022-11-30T10:37:30.997Z,96242.25
2022-11-30T10:39:58.055Z,96245.25
2022-11-30T10:42:24.899Z,96240.47
2022-11-30T10:47:35.175Z,96251.34
2022-11-30T10:50:06.211Z,96248.03
2022-11-30T10:52:33.129Z,96231.16
2022-11-30T10:55:04.892Z,96226.34
2022-11-30T10:57:34.080Z,96228.91
2022-11-30T11:00:00.712Z,96227.34
2022-11-30T11:02:27.907Z,96227.34
2022-11-30T11:10:42.054Z,96220.53
2022-11-30T11:13:08.944Z,96232.03
2022-11-30T11:18:46.355Z,96223.84
2022-11-30T11:21:18.745Z,96229.41
2022-11-30T11:27:04.236Z,96209.34
2022-11-30T11:29:36.737Z,96202.34
2022-11-30T11:34:54.441Z,96212.16
2022-11-30T11:37:21.640Z,96208.16
2022-11-30T11:39:55.650Z,96210.13
2022-11-30T11:42:24.545Z,96213.81
2022-11-30T11:44:51.854Z,96198.72
2022-11-30T11:47:21.417Z,96208.41
2022-11-30T11:49:49.883Z,96205.31
2022-11-30T11:52:21.307Z,96196.69
2022-11-30T11:57:42.111Z,96201.00
2022-11-30T12:00:20.164Z,96189.16
2022-11-30T12:02:47.207Z,96191.63
2022-11-30T12:05:17.229Z,96196.78
2022-11-30T12:07:49.340Z,96193.03
2022-11-30T12:10:50.067Z,96189.41
2022-11-30T12:13:06.448Z,96189.53
2022-11-30T12:15:34.047Z,96186.19
2022-11-30T12:18:10.410Z,96187.97
2022-11-30T12:20:42.001Z,96189.84
2022-11-30T12:23:10.890Z,96199.91
2022-11-30T12:25:38.374Z,96182.84
2022-11-30T12:28:08.977Z,96189.94
2022-11-30T12:30:36.890Z,96199.16
2022-11-30T12:33:35.820Z,96193.53
2022-11-30T12:36:01.050Z,96197.66
2022-11-30T12:38:29.078Z,96199.09
2022-11-30T12:41:01.551Z,96203.81
2022-11-30T12:43:32.979Z,96188.38
2022-11-30T12:46:15.542Z,96190.19
2022-11-30T12:48:43.163Z,96192.38
2022-11-30T12:51:26.423Z,96194.38
2022-11-30T12:56:45.665Z,96189.81
2022-11-30T12:59:19.847Z,96185.66
2022-11-30T13:01:50.892Z,96178.69
2022-11-30T13:04:18.068Z,96181.59
2022-11-30T13:06:46.903Z,96184.91
2022-11-30T13:09:20.760Z,96176.00
2022-11-30T13:11:47.494Z,96171.19
2022-11-30T13:14:16.310Z,96177.81
2022-11-30T13:19:25.804Z,96169.66
2022-11-30T13:24:56.571Z,96167.75
2022-11-30T13:27:34.768Z,96175.09
2022-11-30T13:30:06.242Z,96165.50
2022-11-30T13:35:22.901Z,96167.72
2022-11-30T13:37:58.268Z,96183.94
2022-11-30T13:40:36.410Z,96182.19
2022-11-30T13:43:05.489Z,96165.22
2022-11-30T13:45:34.468Z,96165.16
2022-11-30T13:50:41.605Z,96150.19
2022-11-30T13:53:15.925Z,96167.28
2022-11-30T13:55:43.716Z,96187.59
2022-11-30T13:58:11.364Z,96172.66
2022-11-30T14:00:39.285Z,96162.88
2022-11-30T14:05:56.148Z,96172.94
2022-11-30T14:08:23.279Z,96173.00
2022-11-30T14:10:50.320Z,96174.19
2022-11-30T14:13:19.530Z,96165.94
2022-11-30T14:15:48.512Z,96177.09
2022-11-30T14:18:25.405Z,96164.53
2022-11-30T14:20:52.526Z,96180.59
2022-11-30T14:23:19.700Z,96181.66
2022-11-30T14:25:47.167Z,96180.91
2022-11-30T14:28:15.196Z,96185.28
2022-11-30T14:30:41.979Z,96177.81
2022-11-30T14:33:09.059Z,96171.84
2022-11-30T14:38:32.296Z,96198.84
2022-11-30T14:40:59.630Z,96189.81
2022-11-30T14:43:27.414Z,96180.13
2022-11-30T14:46:00.258Z,96191.75
2022-11-30T14:48:33.553Z,96191.06
2022-11-30T14:51:01.695Z,96190.00
2022-11-30T14:53:30.893Z,96185.25
2022-11-30T14:56:00.012Z,96178.16
2022-11-30T14:58:27.357Z,96182.41
2022-11-30T15:03:45.500Z,96186.47
2022-11-30T15:06:15.621Z,96177.16
2022-11-30T15:08:51.357Z,96167.81
2022-11-30T15:11:31.058Z,96176.34
2022-11-30T15:14:03.996Z,96172.66
2022-11-30T15:16:31.871Z,96188.47
2022-11-30T15:19:03.136Z,96177.28
2022-11-30T15:21:34.193Z,96177.69
2022-11-30T15:24:01.035Z,96185.88
2022-11-30T16:05:42.781Z,96203.81
2022-11-30T16:08:09.840Z,96205.97
2022-11-30T16:10:37.111Z,96220.44
2022-11-30T16:13:03.656Z,96212.94
2022-11-30T19:04:52.331Z,96287.38
2022-11-30T19:07:19.249Z,96295.00
2022-11-30T19:09:46.547Z,96282.72
2022-11-30T19:15:11.177Z,96285.22
2022-11-30T19:17:38.747Z,96289.88
2022-11-30T19:20:05.304Z,96298.19
2022-11-30T19:22:31.777Z,96303.25
2022-11-30T19:24:58.499Z,96311.28
2022-11-30T19:27:25.246Z,96292.81
2022-11-30T19:29:51.840Z,96311.38
2022-11-30T19:32:18.465Z,96295.88
2022-11-30T19:34:45.141Z,96308.00
2022-11-30T19:37:11.825Z,96309.00
2022-11-30T19:39:40.576Z,96300.00
2022-11-30T19:42:07.477Z,96305.03
2022-11-30T20:07:19.032Z,96311.72
2022-11-30T20:09:53.252Z,96314.84
2022-11-30T20:12:21.149Z,96324.28
2022-11-30T20:14:49.082Z,96323.97
2022-11-30T20:17:21.869Z,96328.88
2022-11-30T20:22:46.386Z,96331.09
2022-11-30T20:25:17.008Z,96328.38
2022-11-30T20:27:44.733Z,96329.59
2022-11-30T20:30:11.646Z,96331.88
2022-11-30T20:32:38.324Z,96318.47
2022-11-30T20:35:08.584Z,96320.47
2022-11-30T20:38:19.688Z,96323.44
2022-11-30T20:40:46.626Z,96317.13
2022-11-30T20:43:22.178Z,96328.31
2022-11-30T20:45:49.368Z,96326.44
2022-11-30T20:48:20.259Z,96327.50
2022-11-30T20:51:00.969Z,96318.97
2022-11-30T20:53:33.866Z,96317.47
2022-11-30T20:56:01.614Z,96309.66
2022-11-30T20:58:28.520Z,96311.84
2022-11-30T21:00:56.085Z,96314.34
2022-11-30T21:03:23.796Z,96313.22
2022-11-30T21:05:52.945Z,96317.94
2022-11-30T21:08:21.002Z,96312.41
2022-11-30T21:10:49.335Z,96313.34
2022-11-30T21:13:15.881Z,96314.03
2022-11-30T21:15:43.365Z,96306.69
2022-11-30T21:18:10.320Z,96311.81
2022-11-30T21:20:39.407Z,96305.91
2022-11-30T21:23:08.537Z,96319.19
2022-11-30T21:25:35.582Z,96312.50
2022-11-30T21:28:08.230Z,96324.66
2022-11-30T21:40:08.636Z,96319.59
2022-11-30T21:42:35.398Z,96328.44
2022-11-30T21:45:02.451Z,96328.06
2022-11-30T21:47:30.037Z,96333.22
2022-11-30T21:50:00.215Z,96318.25
2022-11-30T21:52:31.830Z,96329.50
2022-11-30T21:54:59.298Z,96332.81
2022-11-30T21:57:27.041Z,96339.22
2022-11-30T21:59:54.608Z,96331.34
2022-11-30T22:02:22.027Z,96318.31
2022-11-30T22:04:49.348Z,96320.97
2022-11-30T22:07:16.530Z,96332.44
2022-11-30T22:09:44.026Z,96314.25
2022-11-30T22:12:12.998Z,96355.13
2022-11-30T22:14:40.336Z,96322.75
2022-11-30T22:17:07.245Z,96332.38
2022-11-30T22:19:33.920Z,96335.41
2022-11-30T22:22:04.348Z,96344.63
2022-11-30T22:24:34.854Z,96344.34
2022-11-30T22:27:08.984Z,96346.13
2022-11-30T22:29:39.616Z,96343.50
2022-11-30T22:32:09.413Z,96359.78
2022-11-30T22:34:37.191Z,96347.53
2022-11-30T22:37:03.860Z,96348.31
2022-11-30T22:39:30.776Z,96336.19
2022-11-30T22:41:57.656Z,96349.09
2022-11-30T22:44:24.370Z,96355.41
2022-11-30T22:46:53.498Z,96358.38
2022-11-30T22:49:22.041Z,96341.22
2022-11-30T22:51:50.735Z,96349.66
2022-11-30T22:54:17.605Z,96344.88
2022-11-30T22:56:47.246Z,96340.78
2022-11-30T22:59:21.361Z,96345.25
2022-11-30T23:01:50.281Z,96342.66
2022-11-30T23:04:17.238Z,96358.56
2022-11-30T23:06:44.765Z,96336.97
2022-11-30T23:09:12.243Z,96335.19
2022-11-30T23:24:17.529Z,96338.41
2022-11-30T23:29:39.884Z,96337.31
2022-11-30T23:32:08.510Z,96344.00
2022-11-30T23:34:35.169Z,96335.13
2022-11-30T23:37:02.033Z,96340.41
2022-11-30T23:39:29.939Z,96335.94
2022-11-30T23:41:59.815Z,96340.38
2022-11-30T23:44:27.104Z,96330.28
2022-11-30T23:46:54.336Z,96330.00
2022-11-30T23:49:28.115Z,96323.69
2022-11-30T23:51:57.202Z,96321.16
2022-11-30T23:54:23.791Z,96321.16
2022-11-30T23:56:51.892Z,96320.72
2022-11-30T23:59:18.536Z,96313.25
